createdAt,value
2018-08-30T00:01:03.687Z,19.35
2018-08-30T00:03:34.530Z,19.35
2018-08-30T00:06:05.104Z,19.32
2018-08-30T00:08:34.692Z,19.32
2018-08-30T00:11:03.792Z,19.30
2018-08-30T00:13:33.302Z,19.32
2018-08-30T00:16:03.164Z,19.33
2018-08-30T00:18:32.448Z,19.36
2018-08-30T00:21:01.464Z,19.35
2018-08-30T00:23:31.063Z,19.35
2018-08-30T00:26:00.489Z,19.38
2018-08-30T00:28:29.905Z,19.40
2018-08-30T00:30:59.128Z,19.41
2018-08-30T00:33:28.301Z,19.40
2018-08-30T00:35:57.407Z,19.40
2018-08-30T00:38:26.515Z,19.40
2018-08-30T00:40:55.700Z,19.40
2018-08-30T00:43:24.771Z,19.39
2018-08-30T00:45:53.924Z,19.39
2018-08-30T00:48:23.072Z,19.42
2018-08-30T00:50:52.182Z,19.41
2018-08-30T00:53:21.301Z,19.40
2018-08-30T00:55:51.077Z,19.41
2018-08-30T00:58:20.140Z,19.41
2018-08-30T01:00:49.188Z,19.43
2018-08-30T01:03:18.270Z,19.42
2018-08-30T01:05:47.373Z,19.43
2018-08-30T01:08:16.560Z,19.45
2018-08-30T01:10:45.740Z,19.43
2018-08-30T01:13:17.395Z,19.43
2018-08-30T01:15:46.766Z,19.42
2018-08-30T01:18:16.009Z,19.43
2018-08-30T01:20:45.180Z,19.42
2018-08-30T01:23:14.333Z,19.40
2018-08-30T01:25:44.250Z,19.40
2018-08-30T01:28:14.620Z,19.40
2018-08-30T01:30:43.895Z,19.42
2018-08-30T01:33:12.993Z,19.41
2018-08-30T01:35:42.236Z,19.40
2018-08-30T01:38:11.395Z,19.40
2018-08-30T01:40:40.561Z,19.43
2018-08-30T01:43:09.985Z,19.43
2018-08-30T01:45:39.211Z,19.43
2018-08-30T01:48:08.682Z,19.46
2018-08-30T01:50:37.822Z,19.48
2018-08-30T01:53:07.128Z,19.49
2018-08-30T01:55:36.816Z,19.51
2018-08-30T01:58:05.901Z,19.51
2018-08-30T02:00:35.093Z,19.51
2018-08-30T02:03:04.164Z,19.53
2018-08-30T02:05:33.260Z,19.53
2018-08-30T02:08:02.445Z,19.54
2018-08-30T02:10:31.556Z,19.55
2018-08-30T02:13:00.647Z,19.53
2018-08-30T02:15:29.696Z,19.52
2018-08-30T02:17:58.784Z,19.54
2018-08-30T02:20:27.845Z,19.56
2018-08-30T02:22:56.956Z,19.57
2018-08-30T02:25:26.117Z,19.60
2018-08-30T02:27:55.225Z,19.60
2018-08-30T02:30:24.639Z,19.56
2018-08-30T02:32:53.740Z,19.58
2018-08-30T02:35:22.829Z,19.58
2018-08-30T02:37:51.924Z,19.59
2018-08-30T02:40:21.973Z,19.59
2018-08-30T02:42:51.074Z,19.61
2018-08-30T02:45:20.152Z,19.61
2018-08-30T02:47:49.235Z,19.62
2018-08-30T02:50:18.344Z,19.61
2018-08-30T02:52:47.422Z,19.61
2018-08-30T02:55:16.482Z,19.63
2018-08-30T02:57:45.614Z,19.62
2018-08-30T03:00:14.985Z,19.64
2018-08-30T03:02:44.197Z,19.65
2018-08-30T03:05:13.469Z,19.65
2018-08-30T03:07:42.629Z,19.65
2018-08-30T03:10:11.897Z,19.68
2018-08-30T03:12:41.016Z,19.66
2018-08-30T03:15:12.980Z,19.68
2018-08-30T03:17:42.084Z,19.68
2018-08-30T03:20:14.015Z,19.68
2018-08-30T03:22:43.435Z,19.67
2018-08-30T03:25:12.725Z,19.66
2018-08-30T03:27:41.881Z,19.64
2018-08-30T03:30:11.281Z,19.61
2018-08-30T03:32:40.403Z,19.63
2018-08-30T03:35:09.557Z,19.62
2018-08-30T03:37:38.733Z,19.62
2018-08-30T03:40:07.864Z,19.61
2018-08-30T03:42:37.184Z,19.63
2018-08-30T03:45:06.334Z,19.64
2018-08-30T03:47:35.996Z,19.67
2018-08-30T03:50:05.148Z,19.69
2018-08-30T03:52:34.256Z,19.72
2018-08-30T03:55:04.128Z,19.72
2018-08-30T03:57:33.419Z,19.73
2018-08-30T04:00:02.521Z,19.76
2018-08-30T04:02:31.634Z,19.77
2018-08-30T04:05:00.780Z,19.77
2018-08-30T04:07:29.859Z,19.79
2018-08-30T04:09:59.012Z,19.83
2018-08-30T04:12:28.174Z,19.81
2018-08-30T04:14:57.377Z,19.83
2018-08-30T04:17:26.487Z,19.83
2018-08-30T04:19:55.675Z,19.83
2018-08-30T04:22:24.758Z,19.84
2018-08-30T04:24:53.970Z,19.85
2018-08-30T04:27:23.149Z,19.87
2018-08-30T04:29:52.325Z,19.85
2018-08-30T04:32:21.444Z,19.86
2018-08-30T04:34:50.778Z,19.87
2018-08-30T04:37:19.915Z,19.86
2018-08-30T04:39:49.113Z,19.89
2018-08-30T04:42:18.275Z,19.89
2018-08-30T04:44:47.540Z,19.91
2018-08-30T04:47:16.810Z,19.91
2018-08-30T04:49:46.190Z,19.91
2018-08-30T04:52:15.433Z,19.92
2018-08-30T04:54:44.620Z,19.93
2018-08-30T04:57:14.572Z,19.93
2018-08-30T04:59:44.197Z,19.93
2018-08-30T05:02:13.556Z,19.93
2018-08-30T05:04:43.056Z,19.92
2018-08-30T05:07:12.368Z,19.93
2018-08-30T05:09:41.603Z,19.91
2018-08-30T05:12:17.500Z,19.91
2018-08-30T05:14:46.705Z,19.91
2018-08-30T05:17:15.859Z,19.91
2018-08-30T05:19:45.161Z,19.93
2018-08-30T05:22:14.560Z,19.94
2018-08-30T05:24:44.274Z,19.94
2018-08-30T05:27:13.810Z,19.96
2018-08-30T05:29:43.057Z,19.97
2018-08-30T05:32:12.451Z,19.98
2018-08-30T05:34:42.107Z,19.97
2018-08-30T05:37:12.097Z,20.00
2018-08-30T05:39:41.987Z,20.05
2018-08-30T05:42:11.397Z,20.07
2018-08-30T05:44:40.921Z,20.10
2018-08-30T05:47:10.508Z,20.13
2018-08-30T05:49:39.793Z,20.14
2018-08-30T05:52:09.049Z,20.17
2018-08-30T05:54:38.174Z,20.17
2018-08-30T05:57:07.629Z,20.19
2018-08-30T05:59:36.923Z,20.25
2018-08-30T06:02:06.514Z,20.27
2018-08-30T06:04:35.730Z,20.32
2018-08-30T06:07:04.981Z,20.35
2018-08-30T06:09:34.869Z,20.37
2018-08-30T06:12:03.968Z,20.40
2018-08-30T06:14:33.069Z,20.44
2018-08-30T06:17:02.402Z,20.48
2018-08-30T06:19:31.645Z,20.49
2018-08-30T06:22:00.821Z,20.51
2018-08-30T06:24:30.004Z,20.54
2018-08-30T06:26:59.499Z,20.58
2018-08-30T06:29:29.365Z,20.63
2018-08-30T06:31:58.683Z,20.68
2018-08-30T06:34:27.818Z,20.73
2018-08-30T06:36:56.866Z,20.79
2018-08-30T06:39:26.031Z,20.85
2018-08-30T06:41:55.303Z,20.87
2018-08-30T06:44:24.457Z,20.89
2018-08-30T06:46:53.685Z,20.96
2018-08-30T06:49:22.855Z,21.04
2018-08-30T06:51:52.082Z,21.13
2018-08-30T06:54:21.160Z,21.21
2018-08-30T06:56:50.290Z,21.29
2018-08-30T06:59:19.393Z,21.35
2018-08-30T07:01:48.473Z,21.42
2018-08-30T07:04:17.807Z,21.48
2018-08-30T07:06:47.226Z,21.59
2018-08-30T07:09:16.388Z,21.62
2018-08-30T07:11:45.610Z,21.61
2018-08-30T07:14:14.931Z,21.60
2018-08-30T07:16:44.156Z,21.63
2018-08-30T07:19:13.395Z,21.70
2018-08-30T07:21:42.639Z,21.79
2018-08-30T07:24:11.961Z,21.99
2018-08-30T07:26:41.213Z,22.21
2018-08-30T07:29:10.515Z,22.37
2018-08-30T07:31:39.721Z,22.70
2018-08-30T07:34:09.066Z,23.29
2018-08-30T07:36:38.276Z,24.01
2018-08-30T07:39:11.134Z,24.80
2018-08-30T07:41:40.838Z,25.49
2018-08-30T07:44:10.653Z,25.84
2018-08-30T07:46:39.786Z,25.86
2018-08-30T07:49:09.880Z,25.66
2018-08-30T07:51:39.285Z,25.57
2018-08-30T07:54:09.112Z,25.46
2018-08-30T07:56:38.366Z,25.40
2018-08-30T07:59:07.652Z,25.41
2018-08-30T08:01:36.908Z,25.33
2018-08-30T08:04:06.220Z,25.29
2018-08-30T08:06:35.372Z,25.69
2018-08-30T08:09:07.045Z,26.11
2018-08-30T08:11:36.185Z,26.31
2018-08-30T08:14:05.286Z,26.33
2018-08-30T08:16:34.456Z,26.23
2018-08-30T08:19:04.264Z,26.10
2018-08-30T08:21:33.376Z,26.13
2018-08-30T08:24:02.799Z,26.18
2018-08-30T08:26:31.907Z,26.20
2018-08-30T08:29:01.093Z,26.31
2018-08-30T08:31:30.162Z,26.50
2018-08-30T08:33:59.285Z,26.85
2018-08-30T08:36:28.410Z,27.10
2018-08-30T08:38:57.488Z,27.39
2018-08-30T08:41:26.625Z,27.83
2018-08-30T08:43:55.740Z,28.40
2018-08-30T08:46:24.875Z,28.98
2018-08-30T08:48:54.405Z,29.42
2018-08-30T08:51:23.425Z,29.46
2018-08-30T08:53:52.504Z,29.23
2018-08-30T08:56:24.400Z,29.02
2018-08-30T08:58:56.612Z,29.18
2018-08-30T09:01:25.625Z,29.55
2018-08-30T09:03:56.461Z,29.79
2018-08-30T09:06:25.503Z,30.04
2018-08-30T09:08:58.147Z,30.40
2018-08-30T09:11:27.798Z,30.60
2018-08-30T09:14:01.659Z,30.79
2018-08-30T09:16:30.967Z,31.08
2018-08-30T09:19:00.741Z,31.41
2018-08-30T09:21:30.088Z,31.75
2018-08-30T09:23:59.450Z,31.82
2018-08-30T09:26:29.768Z,31.82
2018-08-30T09:28:58.966Z,31.68
2018-08-30T09:31:27.995Z,31.50
2018-08-30T09:33:59.594Z,31.41
2018-08-30T09:36:32.432Z,31.48
2018-08-30T09:39:01.946Z,31.58
2018-08-30T09:41:32.061Z,31.66
2018-08-30T09:44:02.365Z,31.62
2018-08-30T09:46:32.242Z,31.55
2018-08-30T09:49:04.749Z,31.30
2018-08-30T09:51:34.364Z,30.98
2018-08-30T09:54:06.547Z,30.69
2018-08-30T09:56:39.108Z,30.59
2018-08-30T09:59:09.749Z,30.63
2018-08-30T10:01:44.320Z,30.81
2018-08-30T10:04:14.565Z,30.98
2018-08-30T10:06:43.675Z,31.20
2018-08-30T10:09:13.030Z,31.45
2018-08-30T10:11:43.836Z,31.64
2018-08-30T10:14:14.659Z,31.66
2018-08-30T10:16:44.575Z,31.62
2018-08-30T10:19:16.400Z,31.64
2018-08-30T10:21:46.718Z,31.58
2018-08-30T10:24:16.842Z,31.33
2018-08-30T10:26:47.225Z,31.05
2018-08-30T10:29:16.366Z,30.84
2018-08-30T10:31:45.546Z,30.57
2018-08-30T10:34:15.155Z,30.32
2018-08-30T10:36:44.434Z,29.98
2018-08-30T10:39:13.965Z,29.56
2018-08-30T10:41:43.148Z,29.19
2018-08-30T10:44:12.532Z,28.98
2018-08-30T10:46:41.629Z,28.98
2018-08-30T10:49:10.807Z,28.92
2018-08-30T10:51:40.345Z,28.70
2018-08-30T10:54:09.656Z,28.46
2018-08-30T10:56:38.808Z,28.37
2018-08-30T10:59:07.967Z,28.34
2018-08-30T11:01:37.065Z,28.36
2018-08-30T11:04:06.892Z,28.42
2018-08-30T11:06:36.126Z,28.46
2018-08-30T11:09:06.563Z,28.42
2018-08-30T11:11:35.662Z,28.29
2018-08-30T11:14:04.926Z,28.15
2018-08-30T11:16:34.071Z,28.12
2018-08-30T11:19:03.527Z,28.33
2018-08-30T11:21:33.110Z,28.69
2018-08-30T11:24:02.297Z,28.72
2018-08-30T11:26:31.725Z,28.69
2018-08-30T11:29:00.850Z,28.62
2018-08-30T11:31:30.392Z,28.64
2018-08-30T11:33:59.556Z,28.69
2018-08-30T11:36:28.697Z,28.59
2018-08-30T11:38:58.247Z,28.40
2018-08-30T11:41:27.702Z,28.33
2018-08-30T11:43:56.895Z,28.47
2018-08-30T11:46:26.116Z,28.67
2018-08-30T11:48:55.492Z,28.61
2018-08-30T11:51:24.685Z,28.36
2018-08-30T11:53:53.817Z,28.20
2018-08-30T11:56:23.011Z,28.07
2018-08-30T11:58:52.245Z,27.87
2018-08-30T12:01:21.362Z,27.67
2018-08-30T12:03:50.623Z,27.53
2018-08-30T12:06:19.845Z,27.44
2018-08-30T12:08:49.088Z,27.51
2018-08-30T12:11:18.262Z,27.70
2018-08-30T12:13:47.400Z,27.82
2018-08-30T12:16:16.852Z,27.73
2018-08-30T12:18:46.083Z,27.54
2018-08-30T12:21:15.461Z,27.39
2018-08-30T12:23:44.770Z,27.30
2018-08-30T12:26:13.956Z,27.27
2018-08-30T12:28:43.232Z,27.19
2018-08-30T12:31:12.520Z,27.11
2018-08-30T12:33:42.062Z,27.05
2018-08-30T12:36:11.299Z,27.06
2018-08-30T12:38:40.554Z,27.00
2018-08-30T12:41:09.805Z,26.92
2018-08-30T12:43:39.149Z,26.82
2018-08-30T12:46:08.240Z,26.62
2018-08-30T12:48:37.337Z,26.51
2018-08-30T12:51:06.630Z,26.42
2018-08-30T12:53:35.803Z,26.32
2018-08-30T12:56:05.082Z,26.26
2018-08-30T12:58:34.456Z,26.22
2018-08-30T13:01:03.622Z,26.22
2018-08-30T13:03:32.674Z,26.26
2018-08-30T13:06:02.065Z,26.33
2018-08-30T13:08:31.216Z,26.41
2018-08-30T13:11:00.462Z,26.52
2018-08-30T13:13:29.991Z,26.69
2018-08-30T13:15:59.567Z,26.81
2018-08-30T13:18:28.759Z,26.93
2018-08-30T13:20:58.351Z,27.08
2018-08-30T13:23:27.643Z,27.26
2018-08-30T13:25:56.903Z,27.43
2018-08-30T13:28:25.910Z,27.55
2018-08-30T13:30:55.237Z,27.60
2018-08-30T13:33:24.693Z,27.56
2018-08-30T13:35:53.488Z,27.50
2018-08-30T13:38:22.951Z,27.38
2018-08-30T13:40:52.319Z,27.22
2018-08-30T13:43:22.030Z,27.04
2018-08-30T13:45:51.283Z,26.92
2018-08-30T13:48:20.527Z,26.83
2018-08-30T13:50:49.810Z,26.81
2018-08-30T13:53:19.445Z,26.82
2018-08-30T13:55:48.728Z,26.79
2018-08-30T13:58:17.712Z,26.71
2018-08-30T14:00:47.670Z,26.69
2018-08-30T14:03:16.724Z,26.72
2018-08-30T14:05:46.072Z,26.72
2018-08-30T14:08:15.271Z,26.68
2018-08-30T14:10:44.779Z,26.67
2018-08-30T14:13:13.989Z,26.72
2018-08-30T14:15:42.718Z,26.83
2018-08-30T14:18:12.140Z,26.92
2018-08-30T14:20:41.377Z,26.94
2018-08-30T14:23:10.833Z,26.98
2018-08-30T14:25:40.102Z,27.06
2018-08-30T14:28:15.849Z,27.13
2018-08-30T14:30:44.980Z,27.19
2018-08-30T14:33:14.256Z,27.25
2018-08-30T14:35:43.265Z,27.28
2018-08-30T14:38:12.480Z,27.26
2018-08-30T14:40:42.114Z,27.21
2018-08-30T14:43:11.325Z,27.18
2018-08-30T14:45:40.464Z,27.15
2018-08-30T14:48:11.141Z,27.06
2018-08-30T14:50:40.354Z,26.94
2018-08-30T14:53:09.726Z,26.74
2018-08-30T14:55:38.808Z,26.43
2018-08-30T14:58:08.588Z,26.06
2018-08-30T15:00:40.873Z,25.79
2018-08-30T15:03:10.561Z,25.63
2018-08-30T15:05:39.733Z,25.55
2018-08-30T15:08:09.436Z,25.49
2018-08-30T15:10:38.641Z,25.44
2018-08-30T15:13:07.760Z,25.37
2018-08-30T15:15:36.927Z,25.34
2018-08-30T15:18:06.358Z,25.31
2018-08-30T15:20:35.466Z,25.30
2018-08-30T15:23:04.597Z,25.30
2018-08-30T15:25:33.825Z,25.31
2018-08-30T15:28:02.920Z,25.33
2018-08-30T15:30:32.554Z,25.33
2018-08-30T15:33:01.716Z,25.36
2018-08-30T15:35:31.312Z,25.42
2018-08-30T15:38:00.325Z,25.50
2018-08-30T15:40:29.608Z,25.53
2018-08-30T15:42:58.814Z,25.53
2018-08-30T15:45:28.198Z,25.50
2018-08-30T15:47:57.628Z,25.43
2018-08-30T15:50:26.645Z,25.34
2018-08-30T15:52:56.073Z,25.27
2018-08-30T15:55:25.341Z,25.24
2018-08-30T15:57:54.535Z,25.18
2018-08-30T16:00:23.628Z,25.15
2018-08-30T16:02:52.739Z,25.15
2018-08-30T16:05:36.406Z,25.11
2018-08-30T16:08:06.044Z,25.06
2018-08-30T16:10:35.163Z,25.03
2018-08-30T16:13:04.346Z,25.00
2018-08-30T16:15:34.146Z,24.94
2018-08-30T16:18:04.514Z,24.89
2018-08-30T16:20:33.677Z,24.83
2018-08-30T16:23:38.397Z,24.76
2018-08-30T16:26:07.798Z,24.67
2018-08-30T16:28:36.944Z,24.65
2018-08-30T16:31:06.247Z,24.62
2018-08-30T16:33:35.446Z,24.58
2018-08-30T16:36:04.535Z,24.56
2018-08-30T16:38:35.585Z,24.53
2018-08-30T16:41:05.584Z,24.48
2018-08-30T16:43:35.168Z,24.42
2018-08-30T16:46:04.646Z,24.36
2018-08-30T16:48:35.034Z,24.32
2018-08-30T16:51:07.264Z,24.27
2018-08-30T16:53:36.616Z,24.23
2018-08-30T16:56:06.588Z,24.19
2018-08-30T16:58:35.790Z,24.11
2018-08-30T17:01:05.345Z,24.07
2018-08-30T17:03:34.968Z,24.05
2018-08-30T17:06:04.513Z,24.08
2018-08-30T17:08:33.934Z,24.14
2018-08-30T17:11:03.318Z,24.15
2018-08-30T17:13:32.676Z,24.15
2018-08-30T17:16:03.261Z,24.09
2018-08-30T17:18:32.287Z,24.00
2018-08-30T17:21:01.712Z,23.93
2018-08-30T17:23:31.351Z,23.83
2018-08-30T17:26:01.008Z,23.73
2018-08-30T17:28:30.323Z,23.65
2018-08-30T17:30:59.544Z,23.58
2018-08-30T17:33:29.218Z,23.50
2018-08-30T17:35:59.158Z,23.44
2018-08-30T17:39:01.707Z,23.36
2018-08-30T17:41:30.837Z,23.23
2018-08-30T17:44:00.426Z,23.16
2018-08-30T17:46:31.295Z,23.10
2018-08-30T17:49:00.520Z,23.06
2018-08-30T17:51:29.706Z,23.02
2018-08-30T17:53:59.070Z,22.98
2018-08-30T17:56:28.372Z,22.92
2018-08-30T17:58:57.913Z,22.87
2018-08-30T18:01:28.304Z,22.80
2018-08-30T18:03:57.418Z,22.71
2018-08-30T18:06:26.719Z,22.62
2018-08-30T18:08:56.469Z,22.55
2018-08-30T18:11:26.160Z,22.46
2018-08-30T18:13:55.237Z,22.39
2018-08-30T18:16:24.884Z,22.31
2018-08-30T18:18:54.339Z,22.22
2018-08-30T18:21:23.577Z,22.10
2018-08-30T18:23:54.889Z,22.01
2018-08-30T18:26:24.375Z,21.93
2018-08-30T18:28:54.996Z,21.82
2018-08-30T18:31:24.532Z,21.73
2018-08-30T18:33:54.761Z,21.66
2018-08-30T18:36:24.332Z,21.60
2018-08-30T18:38:56.681Z,21.51
2018-08-30T18:41:25.796Z,21.43
2018-08-30T18:43:55.678Z,21.33
2018-08-30T18:46:26.502Z,21.27
2018-08-30T18:48:55.718Z,21.17
2018-08-30T18:51:25.053Z,21.09
2018-08-30T18:53:55.161Z,21.01
2018-08-30T18:56:27.482Z,20.89
2018-08-30T18:58:57.865Z,20.79
2018-08-30T19:01:27.253Z,20.71
2018-08-30T19:03:56.754Z,20.64
2018-08-30T19:06:26.911Z,20.56
2018-08-30T19:08:56.314Z,20.50
2018-08-30T19:11:25.500Z,20.44
2018-08-30T19:13:54.909Z,20.39
2018-08-30T19:16:29.500Z,20.32
2018-08-30T19:19:04.215Z,20.24
2018-08-30T19:21:34.036Z,20.18
2018-08-30T19:24:03.834Z,20.12
2018-08-30T19:26:33.052Z,20.07
2018-08-30T19:29:02.751Z,20.02
2018-08-30T19:31:32.523Z,19.96
2018-08-30T19:34:03.233Z,19.93
2018-08-30T19:36:33.914Z,19.88
2018-08-30T19:39:06.332Z,19.84
2018-08-30T19:41:35.504Z,19.81
2018-08-30T19:44:04.628Z,19.78
2018-08-30T19:46:33.683Z,19.75
2018-08-30T19:49:02.904Z,19.72
2018-08-30T19:51:32.084Z,19.70
2018-08-30T19:54:01.145Z,19.69
2018-08-30T19:56:30.289Z,19.66
2018-08-30T19:58:59.347Z,19.65
2018-08-30T20:01:28.426Z,19.64
2018-08-30T20:03:58.277Z,19.61
2018-08-30T20:06:28.729Z,19.60
2018-08-30T20:08:57.919Z,19.59
2018-08-30T20:11:27.024Z,19.58
2018-08-30T20:13:56.163Z,19.57
2018-08-30T20:16:25.294Z,19.57
2018-08-30T20:18:54.489Z,19.56
2018-08-30T20:21:23.570Z,19.57
2018-08-30T20:23:53.558Z,19.56
2018-08-30T20:26:22.632Z,19.55
2018-08-30T20:28:51.697Z,19.54
2018-08-30T20:31:20.808Z,19.52
2018-08-30T20:33:49.924Z,19.51
2018-08-30T20:36:19.013Z,19.49
2018-08-30T20:38:48.128Z,19.47
2018-08-30T20:41:17.312Z,19.46
2018-08-30T20:43:46.357Z,19.43
2018-08-30T20:46:15.446Z,19.42
2018-08-30T20:48:44.688Z,19.40
2018-08-30T20:51:13.842Z,19.39
2018-08-30T20:53:43.088Z,19.37
2018-08-30T20:56:12.378Z,19.36
2018-08-30T20:58:41.575Z,19.32
2018-08-30T21:01:11.048Z,19.31
2018-08-30T21:03:40.201Z,19.29
2018-08-30T21:06:09.385Z,19.29
2018-08-30T21:08:38.694Z,19.27
2018-08-30T21:11:07.892Z,19.23
2018-08-30T21:13:36.935Z,19.20
2018-08-30T21:16:06.029Z,19.18
2018-08-30T21:18:36.389Z,19.16
2018-08-30T21:21:05.669Z,19.14
2018-08-30T21:23:34.756Z,19.10
2018-08-30T21:26:03.865Z,19.07
2018-08-30T21:28:32.950Z,19.04
2018-08-30T21:31:02.055Z,19.00
2018-08-30T21:33:31.970Z,18.97
2018-08-30T21:36:01.111Z,18.95
2018-08-30T21:38:30.379Z,18.92
2018-08-30T21:40:59.550Z,18.91
2018-08-30T21:43:28.593Z,18.90
2018-08-30T21:45:57.686Z,18.88
2018-08-30T21:48:26.758Z,18.85
2018-08-30T21:50:55.862Z,18.85
2018-08-30T21:53:25.262Z,18.81
2018-08-30T21:56:01.213Z,18.79
2018-08-30T21:58:30.361Z,18.75
2018-08-30T22:00:59.735Z,18.68
2018-08-30T22:03:28.772Z,18.65
2018-08-30T22:05:57.880Z,18.59
2018-08-30T22:08:28.040Z,18.53
2018-08-30T22:10:57.136Z,18.48
2018-08-30T22:13:26.152Z,18.43
2018-08-30T22:15:55.242Z,18.36
2018-08-30T22:18:24.379Z,18.30
2018-08-30T22:20:53.781Z,18.27
2018-08-30T22:23:22.887Z,18.24
2018-08-30T22:25:51.927Z,18.22
2018-08-30T22:28:20.948Z,18.18
2018-08-30T22:30:50.069Z,18.16
2018-08-30T22:33:19.104Z,18.13
2018-08-30T22:35:48.498Z,18.10
2018-08-30T22:38:17.583Z,18.08
2018-08-30T22:40:46.845Z,18.08
2018-08-30T22:43:15.806Z,18.05
2018-08-30T22:45:45.099Z,18.03
2018-08-30T22:48:14.138Z,18.04
2018-08-30T22:50:43.237Z,18.04
2018-08-30T22:53:12.381Z,18.06
2018-08-30T22:55:41.494Z,18.09
2018-08-30T22:58:10.972Z,18.12
2018-08-30T23:00:40.218Z,18.14
2018-08-30T23:03:09.298Z,18.13
2018-08-30T23:05:38.386Z,18.12
2018-08-30T23:08:07.457Z,18.11
2018-08-30T23:10:36.499Z,18.10
2018-08-30T23:13:07.085Z,18.09
2018-08-30T23:15:36.136Z,18.09
2018-08-30T23:18:05.170Z,18.09
2018-08-30T23:20:34.288Z,18.08
2018-08-30T23:23:03.362Z,18.10
2018-08-30T23:25:32.551Z,18.12
2018-08-30T23:28:01.589Z,18.14
2018-08-30T23:30:30.789Z,18.14
2018-08-30T23:32:59.807Z,18.16
2018-08-30T23:35:29.007Z,18.16
2018-08-30T23:37:58.055Z,18.20
2018-08-30T23:40:27.093Z,18.19
2018-08-30T23:42:56.188Z,18.20
2018-08-30T23:45:25.306Z,18.20
2018-08-30T23:47:54.463Z,18.20
2018-08-30T23:50:23.821Z,18.18
2018-08-30T23:52:52.886Z,18.16
2018-08-30T23:55:21.946Z,18.16
2018-08-30T23:58:08.133Z,18.16
